sensor_id;sensor_type;location;lat;lon;timestamp;P1;durP1;ratioP1;P2;durP2;ratioP2
12359;SDS011;6244;51.460;7.090;2022-07-15T00:02:46;1126.27;;;820.67;;
12359;SDS011;6244;51.460;7.090;2022-07-15T00:07:43;1125.30;;;826.17;;
12359;SDS011;6244;51.460;7.090;2022-07-15T00:12:40;1125.30;;;823.83;;
12359;SDS011;6244;51.460;7.090;2022-07-15T00:17:36;1123.88;;;827.33;;
12359;SDS011;6244;51.460;7.090;2022-07-15T00:22:34;1121.90;;;822.90;;
12359;SDS011;6244;51.460;7.090;2022-07-15T00:27:31;1121.90;;;817.22;;
12359;SDS011;6244;51.460;7.090;2022-07-15T00:32:28;1123.18;;;813.17;;
12359;SDS011;6244;51.460;7.090;2022-07-15T00:37:24;1119.57;;;813.25;;
12359;SDS011;6244;51.460;7.090;2022-07-15T00:42:22;1122.38;;;816.22;;
12359;SDS011;6244;51.460;7.090;2022-07-15T00:47:36;1123.77;;;824.17;;
12359;SDS011;6244;51.460;7.090;2022-07-15T00:52:33;1121.35;;;819.13;;
12359;SDS011;6244;51.460;7.090;2022-07-15T00:57:32;1122.15;;;824.63;;
12359;SDS011;6244;51.460;7.090;2022-07-15T01:02:31;1120.47;;;822.50;;
12359;SDS011;6244;51.460;7.090;2022-07-15T01:07:28;1119.90;;;817.10;;
12359;SDS011;6244;51.460;7.090;2022-07-15T01:12:25;1124.15;;;812.20;;
12359;SDS011;6244;51.460;7.090;2022-07-15T01:17:24;1124.38;;;806.90;;
12359;SDS011;6244;51.460;7.090;2022-07-15T01:22:22;1123.20;;;814.17;;
12359;SDS011;6244;51.460;7.090;2022-07-15T01:27:18;1121.70;;;798.95;;
12359;SDS011;6244;51.460;7.090;2022-07-15T01:32:15;1120.80;;;814.80;;
12359;SDS011;6244;51.460;7.090;2022-07-15T01:37:12;1120.50;;;819.85;;
12359;SDS011;6244;51.460;7.090;2022-07-15T01:42:10;1122.43;;;812.88;;
12359;SDS011;6244;51.460;7.090;2022-07-15T01:47:07;1118.78;;;804.08;;
12359;SDS011;6244;51.460;7.090;2022-07-15T01:52:03;1127.90;;;808.03;;
12359;SDS011;6244;51.460;7.090;2022-07-15T01:57:04;1121.68;;;791.45;;
12359;SDS011;6244;51.460;7.090;2022-07-15T02:02:02;1117.55;;;793.00;;
12359;SDS011;6244;51.460;7.090;2022-07-15T02:06:58;1126.40;;;816.78;;
12359;SDS011;6244;51.460;7.090;2022-07-15T02:11:55;1125.82;;;811.05;;
12359;SDS011;6244;51.460;7.090;2022-07-15T02:16:51;1132.97;;;807.50;;
12359;SDS011;6244;51.460;7.090;2022-07-15T02:21:49;1128.00;;;803.13;;
12359;SDS011;6244;51.460;7.090;2022-07-15T02:26:46;1126.65;;;817.08;;
12359;SDS011;6244;51.460;7.090;2022-07-15T02:31:43;1124.47;;;808.13;;
12359;SDS011;6244;51.460;7.090;2022-07-15T02:36:40;1130.73;;;799.93;;
12359;SDS011;6244;51.460;7.090;2022-07-15T02:41:38;1132.38;;;797.28;;
12359;SDS011;6244;51.460;7.090;2022-07-15T02:46:35;1127.28;;;788.80;;
12359;SDS011;6244;51.460;7.090;2022-07-15T02:51:31;1129.00;;;803.10;;
12359;SDS011;6244;51.460;7.090;2022-07-15T02:56:28;1126.97;;;805.30;;
12359;SDS011;6244;51.460;7.090;2022-07-15T03:01:26;1129.03;;;798.70;;
12359;SDS011;6244;51.460;7.090;2022-07-15T03:06:22;1125.68;;;814.80;;
12359;SDS011;6244;51.460;7.090;2022-07-15T03:11:19;1124.85;;;806.97;;
12359;SDS011;6244;51.460;7.090;2022-07-15T03:16:15;1127.50;;;793.58;;
12359;SDS011;6244;51.460;7.090;2022-07-15T03:21:13;1132.00;;;807.30;;
12359;SDS011;6244;51.460;7.090;2022-07-15T03:26:10;1132.45;;;800.42;;
12359;SDS011;6244;51.460;7.090;2022-07-15T03:31:06;1135.27;;;808.77;;
12359;SDS011;6244;51.460;7.090;2022-07-15T03:36:03;1131.03;;;808.00;;
12359;SDS011;6244;51.460;7.090;2022-07-15T03:41:02;1131.57;;;807.38;;
12359;SDS011;6244;51.460;7.090;2022-07-15T03:45:58;1130.65;;;798.58;;
12359;SDS011;6244;51.460;7.090;2022-07-15T03:50:55;1137.18;;;807.63;;
12359;SDS011;6244;51.460;7.090;2022-07-15T03:55:51;1128.53;;;787.37;;
12359;SDS011;6244;51.460;7.090;2022-07-15T04:00:49;1130.53;;;800.38;;
12359;SDS011;6244;51.460;7.090;2022-07-15T04:05:46;1131.82;;;789.80;;
12359;SDS011;6244;51.460;7.090;2022-07-15T04:10:42;1132.68;;;802.42;;
12359;SDS011;6244;51.460;7.090;2022-07-15T04:15:39;1132.27;;;799.27;;
12359;SDS011;6244;51.460;7.090;2022-07-15T04:20:40;1129.20;;;792.55;;
12359;SDS011;6244;51.460;7.090;2022-07-15T04:25:37;1128.28;;;795.83;;
12359;SDS011;6244;51.460;7.090;2022-07-15T04:30:35;1128.22;;;790.22;;
12359;SDS011;6244;51.460;7.090;2022-07-15T04:35:31;1134.40;;;798.17;;
12359;SDS011;6244;51.460;7.090;2022-07-15T04:40:29;1127.80;;;783.60;;
12359;SDS011;6244;51.460;7.090;2022-07-15T04:45:27;1129.28;;;782.55;;
12359;SDS011;6244;51.460;7.090;2022-07-15T04:50:24;1126.40;;;773.20;;
12359;SDS011;6244;51.460;7.090;2022-07-15T04:55:39;1127.87;;;788.30;;
12359;SDS011;6244;51.460;7.090;2022-07-15T05:00:35;1127.33;;;779.77;;
12359;SDS011;6244;51.460;7.090;2022-07-15T05:05:32;1126.00;;;782.38;;
12359;SDS011;6244;51.460;7.090;2022-07-15T05:10:29;1122.80;;;775.80;;
12359;SDS011;6244;51.460;7.090;2022-07-15T05:15:27;1125.38;;;777.13;;
12359;SDS011;6244;51.460;7.090;2022-07-15T05:20:23;1125.30;;;783.30;;
12359;SDS011;6244;51.460;7.090;2022-07-15T05:25:20;1128.20;;;777.30;;
12359;SDS011;6244;51.460;7.090;2022-07-15T05:30:16;1125.28;;;781.20;;
12359;SDS011;6244;51.460;7.090;2022-07-15T05:35:14;1150.30;;;808.45;;
12359;SDS011;6244;51.460;7.090;2022-07-15T05:40:12;1124.95;;;782.03;;
12359;SDS011;6244;51.460;7.090;2022-07-15T05:45:10;1123.72;;;779.15;;
12359;SDS011;6244;51.460;7.090;2022-07-15T05:50:07;1126.88;;;790.67;;
12359;SDS011;6244;51.460;7.090;2022-07-15T05:55:06;1125.80;;;788.25;;
12359;SDS011;6244;51.460;7.090;2022-07-15T06:00:03;1128.80;;;797.33;;
12359;SDS011;6244;51.460;7.090;2022-07-15T06:05:01;1122.93;;;780.43;;
12359;SDS011;6244;51.460;7.090;2022-07-15T06:09:57;1122.63;;;779.88;;
12359;SDS011;6244;51.460;7.090;2022-07-15T06:14:56;1125.32;;;785.45;;
12359;SDS011;6244;51.460;7.090;2022-07-15T06:19:52;1128.90;;;798.95;;
12359;SDS011;6244;51.460;7.090;2022-07-15T06:24:49;1126.20;;;785.17;;
12359;SDS011;6244;51.460;7.090;2022-07-15T06:29:45;1121.47;;;788.78;;
12359;SDS011;6244;51.460;7.090;2022-07-15T06:34:43;1124.63;;;787.55;;
12359;SDS011;6244;51.460;7.090;2022-07-15T06:39:40;1126.32;;;796.92;;
12359;SDS011;6244;51.460;7.090;2022-07-15T06:44:37;1125.65;;;790.80;;
12359;SDS011;6244;51.460;7.090;2022-07-15T06:49:33;1124.55;;;796.63;;
12359;SDS011;6244;51.460;7.090;2022-07-15T06:54:31;1132.27;;;807.70;;
12359;SDS011;6244;51.460;7.090;2022-07-15T06:59:28;1126.20;;;819.33;;
12359;SDS011;6244;51.460;7.090;2022-07-15T07:04:24;1128.97;;;834.33;;
12359;SDS011;6244;51.460;7.090;2022-07-15T07:09:21;1128.13;;;819.67;;
12359;SDS011;6244;51.460;7.090;2022-07-15T07:14:19;1128.78;;;831.30;;
12359;SDS011;6244;51.460;7.090;2022-07-15T07:19:15;1132.32;;;843.35;;
12359;SDS011;6244;51.460;7.090;2022-07-15T07:24:12;1129.28;;;845.00;;
12359;SDS011;6244;51.460;7.090;2022-07-15T07:29:08;1129.28;;;853.42;;
12359;SDS011;6244;51.460;7.090;2022-07-15T07:34:08;1126.60;;;845.33;;
12359;SDS011;6244;51.460;7.090;2022-07-15T07:39:05;1128.03;;;850.22;;
12359;SDS011;6244;51.460;7.090;2022-07-15T07:44:01;1126.07;;;838.13;;
12359;SDS011;6244;51.460;7.090;2022-07-15T07:48:58;1124.38;;;834.72;;
12359;SDS011;6244;51.460;7.090;2022-07-15T07:53:56;1126.00;;;843.03;;
12359;SDS011;6244;51.460;7.090;2022-07-15T07:58:53;1128.50;;;847.85;;
12359;SDS011;6244;51.460;7.090;2022-07-15T08:03:49;1126.47;;;846.97;;
12359;SDS011;6244;51.460;7.090;2022-07-15T08:08:46;1130.10;;;844.80;;
12359;SDS011;6244;51.460;7.090;2022-07-15T08:13:44;1128.80;;;854.90;;
12359;SDS011;6244;51.460;7.090;2022-07-15T08:18:40;1128.18;;;846.55;;
12359;SDS011;6244;51.460;7.090;2022-07-15T08:23:38;1136.30;;;859.53;;
12359;SDS011;6244;51.460;7.090;2022-07-15T08:28:34;1134.67;;;913.40;;
12359;SDS011;6244;51.460;7.090;2022-07-15T08:33:32;1126.25;;;924.92;;
12359;SDS011;6244;51.460;7.090;2022-07-15T08:38:29;1126.43;;;949.45;;
12359;SDS011;6244;51.460;7.090;2022-07-15T08:43:25;1126.70;;;999.90;;
12359;SDS011;6244;51.460;7.090;2022-07-15T08:48:22;1126.90;;;999.90;;
12359;SDS011;6244;51.460;7.090;2022-07-15T08:53:23;1129.15;;;969.83;;
12359;SDS011;6244;51.460;7.090;2022-07-15T08:58:19;1133.03;;;948.72;;
12359;SDS011;6244;51.460;7.090;2022-07-15T09:03:16;1133.28;;;878.38;;
12359;SDS011;6244;51.460;7.090;2022-07-15T09:08:14;1129.43;;;872.97;;
12359;SDS011;6244;51.460;7.090;2022-07-15T09:13:26;1131.30;;;877.87;;
12359;SDS011;6244;51.460;7.090;2022-07-15T09:18:26;1127.90;;;949.95;;
12359;SDS011;6244;51.460;7.090;2022-07-15T09:23:24;1120.95;;;957.55;;
12359;SDS011;6244;51.460;7.090;2022-07-15T09:28:36;1126.33;;;951.23;;
12359;SDS011;6244;51.460;7.090;2022-07-15T09:33:35;1128.75;;;926.85;;
12359;SDS011;6244;51.460;7.090;2022-07-15T09:38:39;1129.63;;;879.37;;
12359;SDS011;6244;51.460;7.090;2022-07-15T09:43:49;1131.65;;;868.25;;
12359;SDS011;6244;51.460;7.090;2022-07-15T09:48:47;1130.57;;;891.58;;
12359;SDS011;6244;51.460;7.090;2022-07-15T09:53:45;1125.95;;;888.28;;
12359;SDS011;6244;51.460;7.090;2022-07-15T09:58:42;1126.43;;;888.50;;
12359;SDS011;6244;51.460;7.090;2022-07-15T10:03:40;1125.80;;;893.90;;
12359;SDS011;6244;51.460;7.090;2022-07-15T10:08:37;1121.97;;;877.00;;
12359;SDS011;6244;51.460;7.090;2022-07-15T10:13:39;1120.55;;;876.30;;
12359;SDS011;6244;51.460;7.090;2022-07-15T10:18:47;1125.82;;;907.85;;
12359;SDS011;6244;51.460;7.090;2022-07-15T10:29:29;1128.65;;;891.55;;
12359;SDS011;6244;51.460;7.090;2022-07-15T10:34:31;1127.53;;;870.13;;
12359;SDS011;6244;51.460;7.090;2022-07-15T10:39:29;1134.63;;;875.13;;
12359;SDS011;6244;51.460;7.090;2022-07-15T10:45:01;1131.10;;;860.50;;
12359;SDS011;6244;51.460;7.090;2022-07-15T10:50:01;1131.53;;;881.63;;
12359;SDS011;6244;51.460;7.090;2022-07-15T10:55:31;1127.50;;;896.65;;
12359;SDS011;6244;51.460;7.090;2022-07-15T11:00:29;1120.97;;;910.08;;
12359;SDS011;6244;51.460;7.090;2022-07-15T11:05:29;1119.90;;;908.25;;
12359;SDS011;6244;51.460;7.090;2022-07-15T11:10:26;1128.10;;;920.70;;
12359;SDS011;6244;51.460;7.090;2022-07-15T11:15:23;1119.40;;;919.15;;
12359;SDS011;6244;51.460;7.090;2022-07-15T11:20:20;1124.45;;;934.28;;
12359;SDS011;6244;51.460;7.090;2022-07-15T11:25:20;1120.70;;;963.03;;
12359;SDS011;6244;51.460;7.090;2022-07-15T11:30:18;1119.45;;;968.47;;
12359;SDS011;6244;51.460;7.090;2022-07-15T11:35:14;1120.43;;;928.90;;
12359;SDS011;6244;51.460;7.090;2022-07-15T11:40:12;1125.60;;;927.85;;
12359;SDS011;6244;51.460;7.090;2022-07-15T11:45:32;1120.82;;;915.20;;
12359;SDS011;6244;51.460;7.090;2022-07-15T11:50:30;1121.95;;;917.40;;
12359;SDS011;6244;51.460;7.090;2022-07-15T11:55:27;1117.97;;;962.53;;
12359;SDS011;6244;51.460;7.090;2022-07-15T12:00:27;1119.80;;;977.97;;
12359;SDS011;6244;51.460;7.090;2022-07-15T12:05:26;1114.78;;;984.30;;
12359;SDS011;6244;51.460;7.090;2022-07-15T12:10:32;1112.83;;;976.53;;
12359;SDS011;6244;51.460;7.090;2022-07-15T12:15:30;1114.68;;;979.17;;
12359;SDS011;6244;51.460;7.090;2022-07-15T12:20:28;1120.20;;;940.90;;
12359;SDS011;6244;51.460;7.090;2022-07-15T12:25:25;1124.03;;;933.23;;
12359;SDS011;6244;51.460;7.090;2022-07-15T12:30:28;1124.85;;;917.22;;
12359;SDS011;6244;51.460;7.090;2022-07-15T12:35:28;1125.28;;;912.38;;
12359;SDS011;6244;51.460;7.090;2022-07-15T12:40:24;1122.45;;;899.03;;
12359;SDS011;6244;51.460;7.090;2022-07-15T12:45:21;1122.15;;;898.80;;
12359;SDS011;6244;51.460;7.090;2022-07-15T12:50:19;1121.25;;;901.38;;
12359;SDS011;6244;51.460;7.090;2022-07-15T12:55:18;1120.95;;;911.35;;
12359;SDS011;6244;51.460;7.090;2022-07-15T13:00:17;1114.20;;;895.63;;
12359;SDS011;6244;51.460;7.090;2022-07-15T13:05:15;1113.18;;;892.72;;
12359;SDS011;6244;51.460;7.090;2022-07-15T13:10:12;1120.03;;;901.40;;
12359;SDS011;6244;51.460;7.090;2022-07-15T13:15:10;1123.88;;;904.65;;
12359;SDS011;6244;51.460;7.090;2022-07-15T13:20:07;1118.28;;;897.03;;
12359;SDS011;6244;51.460;7.090;2022-07-15T13:25:05;1116.60;;;902.88;;
12359;SDS011;6244;51.460;7.090;2022-07-15T13:30:02;1118.35;;;917.65;;
12359;SDS011;6244;51.460;7.090;2022-07-15T13:35:01;1118.53;;;919.75;;
12359;SDS011;6244;51.460;7.090;2022-07-15T13:39:58;1113.07;;;893.00;;
12359;SDS011;6244;51.460;7.090;2022-07-15T13:44:55;1116.23;;;898.30;;
12359;SDS011;6244;51.460;7.090;2022-07-15T13:49:51;1116.38;;;890.08;;
12359;SDS011;6244;51.460;7.090;2022-07-15T13:55:08;1115.07;;;888.73;;
12359;SDS011;6244;51.460;7.090;2022-07-15T14:00:06;1115.93;;;891.13;;
12359;SDS011;6244;51.460;7.090;2022-07-15T14:05:07;1117.45;;;896.15;;
12359;SDS011;6244;51.460;7.090;2022-07-15T14:10:04;1112.53;;;887.10;;
12359;SDS011;6244;51.460;7.090;2022-07-15T14:15:03;1117.43;;;902.30;;
12359;SDS011;6244;51.460;7.090;2022-07-15T14:20:00;1116.27;;;907.30;;
12359;SDS011;6244;51.460;7.090;2022-07-15T14:24:57;1112.82;;;895.03;;
12359;SDS011;6244;51.460;7.090;2022-07-15T14:29:54;1114.93;;;906.95;;
12359;SDS011;6244;51.460;7.090;2022-07-15T14:34:52;1115.05;;;900.15;;
12359;SDS011;6244;51.460;7.090;2022-07-15T14:39:48;1113.35;;;898.17;;
12359;SDS011;6244;51.460;7.090;2022-07-15T14:44:45;1112.80;;;898.13;;
12359;SDS011;6244;51.460;7.090;2022-07-15T14:49:41;1112.10;;;894.28;;
12359;SDS011;6244;51.460;7.090;2022-07-15T14:54:39;1107.78;;;889.70;;
12359;SDS011;6244;51.460;7.090;2022-07-15T14:59:36;1105.60;;;881.42;;
12359;SDS011;6244;51.460;7.090;2022-07-15T15:04:33;1104.82;;;875.58;;
12359;SDS011;6244;51.460;7.090;2022-07-15T15:09:29;1105.80;;;880.88;;
12359;SDS011;6244;51.460;7.090;2022-07-15T15:14:27;1112.97;;;898.63;;
12359;SDS011;6244;51.460;7.090;2022-07-15T15:19:24;1110.30;;;894.70;;
12359;SDS011;6244;51.460;7.090;2022-07-15T15:24:20;1108.18;;;887.75;;
12359;SDS011;6244;51.460;7.090;2022-07-15T15:29:17;1110.28;;;895.88;;
12359;SDS011;6244;51.460;7.090;2022-07-15T15:34:15;1116.20;;;893.40;;
12359;SDS011;6244;51.460;7.090;2022-07-15T15:39:12;1116.10;;;896.47;;
12359;SDS011;6244;51.460;7.090;2022-07-15T15:44:08;1114.05;;;898.45;;
12359;SDS011;6244;51.460;7.090;2022-07-15T15:49:05;1113.68;;;897.20;;
12359;SDS011;6244;51.460;7.090;2022-07-15T15:54:03;1108.43;;;884.15;;
12359;SDS011;6244;51.460;7.090;2022-07-15T15:58:59;1115.38;;;899.22;;
12359;SDS011;6244;51.460;7.090;2022-07-15T16:03:56;1114.83;;;900.80;;
12359;SDS011;6244;51.460;7.090;2022-07-15T16:08:53;1111.75;;;884.17;;
12359;SDS011;6244;51.460;7.090;2022-07-15T16:13:51;1114.72;;;895.40;;
12359;SDS011;6244;51.460;7.090;2022-07-15T16:18:47;1110.15;;;896.08;;
12359;SDS011;6244;51.460;7.090;2022-07-15T16:23:44;1109.43;;;894.90;;
12359;SDS011;6244;51.460;7.090;2022-07-15T16:28:41;1109.03;;;890.40;;
12359;SDS011;6244;51.460;7.090;2022-07-15T16:33:38;1111.68;;;896.35;;
12359;SDS011;6244;51.460;7.090;2022-07-15T16:38:35;1113.40;;;890.15;;
12359;SDS011;6244;51.460;7.090;2022-07-15T16:43:31;1113.93;;;891.07;;
12359;SDS011;6244;51.460;7.090;2022-07-15T16:48:28;1113.57;;;876.75;;
12359;SDS011;6244;51.460;7.090;2022-07-15T16:53:26;1118.53;;;878.63;;
12359;SDS011;6244;51.460;7.090;2022-07-15T16:58:22;1119.03;;;877.70;;
12359;SDS011;6244;51.460;7.090;2022-07-15T17:03:19;1114.15;;;869.22;;
12359;SDS011;6244;51.460;7.090;2022-07-15T17:08:15;1113.90;;;866.77;;
12359;SDS011;6244;51.460;7.090;2022-07-15T17:13:14;1115.63;;;875.15;;
12359;SDS011;6244;51.460;7.090;2022-07-15T17:18:10;1113.35;;;867.10;;
12359;SDS011;6244;51.460;7.090;2022-07-15T17:23:07;1114.15;;;874.63;;
12359;SDS011;6244;51.460;7.090;2022-07-15T17:28:03;1114.18;;;874.67;;
12359;SDS011;6244;51.460;7.090;2022-07-15T17:33:02;1114.50;;;876.72;;
12359;SDS011;6244;51.460;7.090;2022-07-15T17:37:58;1115.07;;;873.50;;
12359;SDS011;6244;51.460;7.090;2022-07-15T17:42:55;1112.70;;;859.37;;
12359;SDS011;6244;51.460;7.090;2022-07-15T17:47:51;1112.13;;;870.42;;
12359;SDS011;6244;51.460;7.090;2022-07-15T17:52:49;1109.63;;;861.47;;
12359;SDS011;6244;51.460;7.090;2022-07-15T17:57:46;1109.33;;;860.23;;
12359;SDS011;6244;51.460;7.090;2022-07-15T18:02:43;1112.30;;;868.08;;
12359;SDS011;6244;51.460;7.090;2022-07-15T18:07:39;1111.80;;;868.90;;
12359;SDS011;6244;51.460;7.090;2022-07-15T18:12:37;1112.72;;;867.35;;
12359;SDS011;6244;51.460;7.090;2022-07-15T18:17:34;1117.07;;;872.83;;
12359;SDS011;6244;51.460;7.090;2022-07-15T18:22:30;1123.07;;;856.65;;
12359;SDS011;6244;51.460;7.090;2022-07-15T18:27:27;1122.07;;;853.38;;
12359;SDS011;6244;51.460;7.090;2022-07-15T18:32:25;1121.40;;;856.97;;
12359;SDS011;6244;51.460;7.090;2022-07-15T18:37:21;1120.32;;;853.00;;
12359;SDS011;6244;51.460;7.090;2022-07-15T18:42:18;1120.57;;;883.35;;
12359;SDS011;6244;51.460;7.090;2022-07-15T18:47:14;1115.93;;;868.67;;
12359;SDS011;6244;51.460;7.090;2022-07-15T18:52:12;1118.63;;;858.37;;
12359;SDS011;6244;51.460;7.090;2022-07-15T18:57:09;1121.45;;;854.97;;
12359;SDS011;6244;51.460;7.090;2022-07-15T19:02:05;1125.10;;;863.05;;
12359;SDS011;6244;51.460;7.090;2022-07-15T19:07:02;1123.87;;;857.27;;
12359;SDS011;6244;51.460;7.090;2022-07-15T19:12:00;1122.45;;;852.97;;
12359;SDS011;6244;51.460;7.090;2022-07-15T19:16:56;1123.43;;;852.90;;
12359;SDS011;6244;51.460;7.090;2022-07-15T19:21:53;1125.40;;;859.37;;
12359;SDS011;6244;51.460;7.090;2022-07-15T19:26:49;1126.75;;;863.08;;
12359;SDS011;6244;51.460;7.090;2022-07-15T19:31:47;1126.95;;;866.42;;
12359;SDS011;6244;51.460;7.090;2022-07-15T19:36:44;1122.88;;;854.13;;
12359;SDS011;6244;51.460;7.090;2022-07-15T19:41:41;1123.67;;;854.07;;
12359;SDS011;6244;51.460;7.090;2022-07-15T19:46:37;1124.95;;;852.45;;
12359;SDS011;6244;51.460;7.090;2022-07-15T19:51:35;1126.33;;;850.53;;
12359;SDS011;6244;51.460;7.090;2022-07-15T19:56:32;1127.23;;;850.07;;
12359;SDS011;6244;51.460;7.090;2022-07-15T20:01:29;1125.43;;;847.65;;
12359;SDS011;6244;51.460;7.090;2022-07-15T20:06:25;1122.82;;;832.33;;
12359;SDS011;6244;51.460;7.090;2022-07-15T20:11:23;1127.07;;;844.13;;
12359;SDS011;6244;51.460;7.090;2022-07-15T20:16:20;1132.68;;;851.50;;
12359;SDS011;6244;51.460;7.090;2022-07-15T20:21:17;1130.38;;;841.90;;
12359;SDS011;6244;51.460;7.090;2022-07-15T20:26:13;1129.87;;;845.23;;
12359;SDS011;6244;51.460;7.090;2022-07-15T20:31:11;1127.20;;;836.17;;
12359;SDS011;6244;51.460;7.090;2022-07-15T20:36:08;1127.63;;;844.92;;
12359;SDS011;6244;51.460;7.090;2022-07-15T20:41:04;1127.13;;;838.40;;
12359;SDS011;6244;51.460;7.090;2022-07-15T20:46:01;1128.43;;;846.47;;
12359;SDS011;6244;51.460;7.090;2022-07-15T20:50:59;1127.78;;;839.80;;
12359;SDS011;6244;51.460;7.090;2022-07-15T20:55:55;1125.63;;;837.25;;
12359;SDS011;6244;51.460;7.090;2022-07-15T21:00:52;1128.80;;;846.43;;
12359;SDS011;6244;51.460;7.090;2022-07-15T21:05:48;1131.93;;;843.88;;
12359;SDS011;6244;51.460;7.090;2022-07-15T21:10:46;1126.93;;;833.73;;
12359;SDS011;6244;51.460;7.090;2022-07-15T21:15:43;1133.63;;;844.42;;
12359;SDS011;6244;51.460;7.090;2022-07-15T21:20:39;1128.53;;;841.40;;
12359;SDS011;6244;51.460;7.090;2022-07-15T21:25:36;1129.72;;;834.42;;
12359;SDS011;6244;51.460;7.090;2022-07-15T21:30:51;1124.53;;;822.72;;
12359;SDS011;6244;51.460;7.090;2022-07-15T21:35:48;1124.55;;;824.60;;
12359;SDS011;6244;51.460;7.090;2022-07-15T21:40:44;1128.78;;;834.55;;
12359;SDS011;6244;51.460;7.090;2022-07-15T21:45:41;1127.22;;;823.33;;
12359;SDS011;6244;51.460;7.090;2022-07-15T21:50:39;1127.53;;;832.80;;
12359;SDS011;6244;51.460;7.090;2022-07-15T21:55:36;1129.00;;;832.78;;
12359;SDS011;6244;51.460;7.090;2022-07-15T22:00:32;1131.47;;;833.63;;
12359;SDS011;6244;51.460;7.090;2022-07-15T22:05:35;1132.10;;;831.55;;
12359;SDS011;6244;51.460;7.090;2022-07-15T22:10:34;1131.93;;;836.17;;
12359;SDS011;6244;51.460;7.090;2022-07-15T22:15:30;1131.07;;;839.75;;
12359;SDS011;6244;51.460;7.090;2022-07-15T22:20:29;1132.53;;;836.00;;
12359;SDS011;6244;51.460;7.090;2022-07-15T22:25:26;1129.78;;;835.25;;
12359;SDS011;6244;51.460;7.090;2022-07-15T22:30:27;1129.22;;;831.05;;
12359;SDS011;6244;51.460;7.090;2022-07-15T22:35:23;1130.97;;;835.40;;
12359;SDS011;6244;51.460;7.090;2022-07-15T22:40:20;1130.10;;;828.80;;
12359;SDS011;6244;51.460;7.090;2022-07-15T22:45:17;1124.97;;;827.47;;
12359;SDS011;6244;51.460;7.090;2022-07-15T22:50:15;1127.33;;;839.37;;
12359;SDS011;6244;51.460;7.090;2022-07-15T22:55:11;1128.10;;;826.27;;
12359;SDS011;6244;51.460;7.090;2022-07-15T23:00:08;1125.30;;;817.08;;
12359;SDS011;6244;51.460;7.090;2022-07-15T23:05:06;1128.53;;;813.00;;
12359;SDS011;6244;51.460;7.090;2022-07-15T23:10:05;1126.57;;;821.60;;
12359;SDS011;6244;51.460;7.090;2022-07-15T23:15:03;1124.13;;;820.90;;
12359;SDS011;6244;51.460;7.090;2022-07-15T23:20:00;1127.07;;;835.60;;
12359;SDS011;6244;51.460;7.090;2022-07-15T23:24:58;1128.63;;;821.37;;
12359;SDS011;6244;51.460;7.090;2022-07-15T23:29:56;1137.20;;;815.85;;
12359;SDS011;6244;51.460;7.090;2022-07-15T23:34:52;1132.20;;;824.15;;
12359;SDS011;6244;51.460;7.090;2022-07-15T23:39:49;1136.38;;;834.60;;
12359;SDS011;6244;51.460;7.090;2022-07-15T23:44:45;1128.47;;;822.53;;
12359;SDS011;6244;51.460;7.090;2022-07-15T23:49:43;1127.72;;;812.53;;
12359;SDS011;6244;51.460;7.090;2022-07-15T23:54:40;1128.93;;;828.25;;
12359;SDS011;6244;51.460;7.090;2022-07-15T23:59:36;1128.53;;;820.65;;
